createdAt,value
2018-07-10T00:02:13.750Z,18.70
2018-07-10T00:04:37.010Z,18.66
2018-07-10T00:07:05.467Z,18.74
2018-07-10T00:09:36.282Z,18.82
2018-07-10T00:11:48.735Z,18.81
2018-07-10T00:14:01.270Z,18.82
2018-07-10T00:16:13.633Z,18.78
2018-07-10T00:18:26.015Z,18.74
2018-07-10T00:20:38.482Z,18.75
2018-07-10T00:22:51.009Z,18.78
2018-07-10T00:25:03.410Z,18.81
2018-07-10T00:27:15.791Z,18.82
2018-07-10T00:29:28.206Z,18.77
2018-07-10T00:31:40.738Z,18.75
2018-07-10T00:33:53.190Z,18.76
2018-07-10T00:36:05.524Z,18.78
2018-07-10T00:38:29.427Z,18.73
2018-07-10T00:40:41.970Z,18.71
2018-07-10T00:42:54.475Z,18.75
2018-07-10T00:45:06.882Z,18.74
2018-07-10T00:47:19.218Z,18.77
2018-07-10T00:49:31.579Z,18.79
2018-07-10T00:51:43.975Z,18.81
2018-07-10T00:53:56.393Z,18.82
2018-07-10T00:56:08.808Z,18.77
2018-07-10T00:58:21.234Z,18.77
2018-07-10T01:00:34.842Z,18.72
2018-07-10T01:02:47.306Z,18.71
2018-07-10T01:04:59.678Z,18.70
2018-07-10T01:07:12.131Z,18.60
2018-07-10T01:09:24.625Z,18.54
2018-07-10T01:11:37.015Z,18.49
2018-07-10T01:13:50.310Z,18.45
2018-07-10T01:16:02.743Z,18.40
2018-07-10T01:18:22.186Z,18.34
2018-07-10T01:20:34.662Z,18.38
2018-07-10T01:22:47.250Z,18.38
2018-07-10T01:24:59.702Z,18.40
2018-07-10T01:27:12.358Z,18.36
2018-07-10T01:29:30.434Z,18.34
2018-07-10T01:31:44.490Z,18.31
2018-07-10T01:33:57.151Z,18.35
2018-07-10T01:36:09.575Z,18.38
2018-07-10T01:38:22.291Z,18.35
2018-07-10T01:40:34.782Z,18.35
2018-07-10T01:42:47.226Z,18.34
2018-07-10T01:44:59.760Z,18.27
2018-07-10T01:47:12.202Z,18.21
2018-07-10T01:49:24.640Z,18.18
2018-07-10T01:51:37.091Z,18.15
2018-07-10T01:53:50.328Z,18.13
2018-07-10T01:56:02.656Z,18.11
2018-07-10T01:58:15.216Z,18.05
2018-07-10T02:00:40.118Z,18.05
2018-07-10T02:02:52.567Z,18.07
2018-07-10T02:05:05.034Z,18.04
2018-07-10T02:07:17.386Z,18.04
2018-07-10T02:09:29.918Z,18.00
2018-07-10T02:11:42.298Z,17.94
2018-07-10T02:13:54.724Z,17.86
2018-07-10T02:16:07.079Z,17.79
2018-07-10T02:18:20.087Z,17.77
2018-07-10T02:21:36.787Z,17.70
2018-07-10T02:23:49.331Z,17.59
2018-07-10T02:26:02.107Z,17.60
2018-07-10T02:28:14.510Z,17.62
2018-07-10T02:30:26.902Z,17.50
2018-07-10T02:32:39.316Z,17.51
2018-07-10T02:34:51.813Z,17.45
2018-07-10T02:37:04.887Z,17.43
2018-07-10T02:39:18.027Z,17.48
2018-07-10T02:41:30.429Z,17.51
2018-07-10T02:43:45.602Z,17.56
2018-07-10T02:45:58.812Z,17.58
2018-07-10T02:48:11.321Z,17.55
2018-07-10T02:50:23.843Z,17.47
2018-07-10T02:52:40.415Z,17.53
2018-07-10T02:54:52.986Z,17.47
2018-07-10T02:57:08.546Z,17.47
2018-07-10T02:59:21.689Z,17.46
2018-07-10T03:01:34.227Z,17.42
2018-07-10T03:03:47.682Z,17.46
2018-07-10T03:06:00.110Z,17.44
2018-07-10T03:08:12.562Z,17.46
2018-07-10T03:10:25.078Z,17.48
2018-07-10T03:12:39.393Z,17.51
2018-07-10T03:14:51.822Z,17.51
2018-07-10T03:17:04.260Z,17.48
2018-07-10T03:19:17.044Z,17.44
2018-07-10T03:21:29.419Z,17.41
2018-07-10T03:23:41.867Z,17.42
2018-07-10T03:25:54.260Z,17.39
2018-07-10T03:28:06.732Z,17.35
2018-07-10T03:30:19.192Z,17.33
2018-07-10T03:32:32.046Z,17.31
2018-07-10T03:34:44.450Z,17.24
2018-07-10T03:36:57.114Z,17.21
2018-07-10T03:39:09.546Z,17.18
2018-07-10T03:41:21.998Z,17.16
2018-07-10T03:43:34.411Z,17.13
2018-07-10T03:45:47.068Z,17.14
2018-07-10T03:47:59.666Z,17.16
2018-07-10T03:50:12.210Z,17.19
2018-07-10T03:52:29.194Z,17.18
2018-07-10T03:54:42.419Z,17.19
2018-07-10T03:56:54.926Z,17.20
2018-07-10T03:59:07.466Z,17.27
2018-07-10T04:01:19.962Z,17.31
2018-07-10T04:03:33.562Z,17.36
2018-07-10T04:05:46.002Z,17.38
2018-07-10T04:07:58.419Z,17.41
2018-07-10T04:10:12.423Z,17.45
2018-07-10T04:12:30.899Z,17.44
2018-07-10T04:14:44.361Z,17.46
2018-07-10T04:16:57.371Z,17.48
2018-07-10T04:19:09.786Z,17.53
2018-07-10T04:21:26.015Z,17.58
2018-07-10T04:23:38.890Z,17.55
2018-07-10T04:25:53.445Z,17.59
2018-07-10T04:28:11.498Z,17.63
2018-07-10T04:30:34.228Z,17.69
2018-07-10T04:32:46.726Z,17.69
2018-07-10T04:34:59.447Z,17.74
2018-07-10T04:37:12.498Z,17.78
2018-07-10T04:39:25.203Z,17.78
2018-07-10T04:41:41.202Z,17.73
2018-07-10T04:43:58.989Z,17.76
2018-07-10T04:46:11.999Z,17.77
2018-07-10T04:48:34.459Z,17.76
2018-07-10T04:50:52.809Z,17.76
2018-07-10T04:53:08.722Z,17.76
2018-07-10T04:55:21.194Z,17.85
2018-07-10T04:57:40.309Z,17.97
2018-07-10T04:59:52.733Z,18.08
2018-07-10T05:02:05.937Z,18.15
2018-07-10T05:04:18.645Z,18.17
2018-07-10T05:06:33.834Z,18.19
2018-07-10T05:08:46.812Z,18.29
2018-07-10T05:10:59.429Z,18.38
2018-07-10T05:13:11.882Z,18.48
2018-07-10T05:15:24.290Z,18.52
2018-07-10T05:17:36.699Z,18.54
2018-07-10T05:19:49.129Z,18.62
2018-07-10T05:22:01.971Z,18.77
2018-07-10T05:24:14.714Z,18.93
2018-07-10T05:26:27.258Z,19.03
2018-07-10T05:28:39.738Z,19.12
2018-07-10T05:30:57.470Z,19.21
2018-07-10T05:33:11.422Z,19.28
2018-07-10T05:35:23.916Z,19.33
2018-07-10T05:37:37.331Z,19.35
2018-07-10T05:39:49.830Z,19.36
2018-07-10T05:42:02.252Z,19.36
2018-07-10T05:44:17.802Z,19.36
2018-07-10T05:46:30.257Z,19.40
2018-07-10T05:48:51.587Z,19.44
2018-07-10T05:51:04.015Z,19.45
2018-07-10T05:53:16.426Z,19.47
2018-07-10T05:55:30.007Z,19.54
2018-07-10T05:57:42.703Z,19.59
2018-07-10T05:59:55.429Z,19.64
2018-07-10T06:02:07.819Z,19.65
2018-07-10T06:04:20.281Z,19.67
2018-07-10T06:06:32.775Z,19.68
2018-07-10T06:08:45.564Z,19.65
2018-07-10T06:10:58.043Z,19.72
2018-07-10T06:13:10.428Z,19.71
2018-07-10T06:15:22.890Z,19.74
2018-07-10T06:17:35.323Z,19.76
2018-07-10T06:19:47.802Z,19.76
2018-07-10T06:22:00.633Z,19.76
2018-07-10T06:24:21.650Z,19.80
2018-07-10T06:26:37.806Z,19.77
2018-07-10T06:28:56.444Z,19.75
2018-07-10T06:31:13.339Z,19.75
2018-07-10T06:33:26.851Z,19.76
2018-07-10T06:35:46.242Z,19.71
2018-07-10T06:37:58.914Z,19.71
2018-07-10T06:40:11.351Z,19.73
2018-07-10T06:42:28.350Z,19.76
2018-07-10T06:44:40.862Z,19.78
2018-07-10T06:46:57.114Z,19.82
2018-07-10T06:49:19.658Z,19.84
2018-07-10T06:51:32.183Z,19.86
2018-07-10T06:53:46.436Z,19.84
2018-07-10T06:55:59.041Z,19.84
2018-07-10T06:58:11.454Z,19.88
2018-07-10T07:00:24.785Z,19.91
2018-07-10T07:02:38.090Z,19.93
2018-07-10T07:04:50.649Z,19.97
2018-07-10T07:07:03.440Z,19.93
2018-07-10T07:09:15.913Z,19.92
2018-07-10T07:11:28.406Z,19.90
2018-07-10T07:13:40.737Z,19.92
2018-07-10T07:15:53.178Z,19.92
2018-07-10T07:18:06.541Z,19.88
2018-07-10T07:20:19.605Z,19.86
2018-07-10T07:22:33.009Z,19.89
2018-07-10T07:24:45.431Z,19.86
2018-07-10T07:26:57.915Z,19.85
2018-07-10T07:29:11.229Z,19.81
2018-07-10T07:31:23.689Z,19.73
2018-07-10T07:33:36.105Z,19.66
2018-07-10T07:35:48.546Z,19.66
2018-07-10T07:38:00.982Z,19.67
2018-07-10T07:40:13.587Z,19.64
2018-07-10T07:42:26.775Z,19.57
2018-07-10T07:44:39.276Z,19.54
2018-07-10T07:46:51.710Z,19.54
2018-07-10T07:49:04.206Z,19.45
2018-07-10T07:51:16.598Z,19.39
2018-07-10T07:53:29.478Z,19.37
2018-07-10T07:55:43.029Z,19.32
2018-07-10T07:57:55.601Z,19.28
2018-07-10T08:00:08.051Z,19.28
2018-07-10T08:02:21.342Z,19.33
2018-07-10T08:04:33.769Z,19.37
2018-07-10T08:06:46.455Z,19.46
2018-07-10T08:08:58.946Z,19.55
2018-07-10T08:11:11.454Z,19.63
2018-07-10T08:13:23.909Z,19.76
2018-07-10T08:15:36.562Z,19.95
2018-07-10T08:17:48.919Z,20.10
2018-07-10T08:20:01.376Z,20.22
2018-07-10T08:22:13.857Z,20.33
2018-07-10T08:24:26.257Z,20.45
2018-07-10T08:26:39.617Z,20.45
2018-07-10T08:28:52.013Z,20.48
2018-07-10T08:31:04.538Z,20.55
2018-07-10T08:33:17.006Z,20.70
2018-07-10T08:35:29.453Z,20.81
2018-07-10T08:37:41.934Z,20.93
2018-07-10T08:39:54.353Z,21.05
2018-07-10T08:42:06.827Z,21.11
2018-07-10T08:44:20.362Z,21.20
2018-07-10T08:46:32.779Z,21.28
2018-07-10T08:48:46.650Z,21.39
2018-07-10T08:50:59.224Z,21.47
2018-07-10T08:53:11.946Z,21.53
2018-07-10T08:55:24.463Z,21.49
2018-07-10T08:57:37.029Z,21.48
2018-07-10T08:59:49.605Z,21.81
2018-07-10T09:02:03.162Z,22.22
2018-07-10T09:04:16.489Z,22.40
2018-07-10T09:06:28.942Z,22.43
2018-07-10T09:08:41.423Z,22.32
2018-07-10T09:10:53.817Z,22.11
2018-07-10T09:13:06.233Z,21.95
2018-07-10T09:15:18.674Z,21.83
2018-07-10T09:17:31.163Z,21.74
2018-07-10T09:19:43.574Z,21.65
2018-07-10T09:22:06.870Z,21.56
2018-07-10T09:24:19.631Z,21.40
2018-07-10T09:26:33.257Z,21.27
2018-07-10T09:28:46.650Z,20.91
2018-07-10T09:30:59.707Z,20.67
2018-07-10T09:33:12.158Z,20.45
2018-07-10T09:35:24.753Z,20.36
2018-07-10T09:37:42.726Z,20.23
2018-07-10T09:40:00.734Z,20.12
2018-07-10T09:42:13.130Z,20.05
2018-07-10T09:44:25.869Z,20.03
2018-07-10T09:46:38.334Z,20.05
2018-07-10T09:48:50.786Z,20.12
2018-07-10T09:51:03.188Z,20.21
2018-07-10T09:53:16.027Z,20.29
2018-07-10T09:55:28.703Z,20.42
2018-07-10T09:57:42.478Z,20.60
2018-07-10T09:59:55.134Z,20.69
2018-07-10T10:02:13.286Z,20.96
2018-07-10T10:04:25.927Z,21.37
2018-07-10T10:06:38.299Z,21.53
2018-07-10T10:08:50.683Z,21.59
2018-07-10T10:11:03.228Z,21.85
2018-07-10T10:13:16.030Z,22.19
2018-07-10T10:15:32.545Z,22.46
2018-07-10T10:17:45.462Z,22.51
2018-07-10T10:19:58.713Z,22.53
2018-07-10T10:22:12.243Z,22.52
2018-07-10T10:24:24.724Z,22.53
2018-07-10T10:26:37.178Z,22.43
2018-07-10T10:28:49.621Z,22.31
2018-07-10T10:31:01.999Z,22.40
2018-07-10T10:33:14.426Z,22.57
2018-07-10T10:35:26.923Z,22.69
2018-07-10T10:37:39.358Z,22.69
2018-07-10T10:39:53.453Z,22.64
2018-07-10T10:42:06.250Z,22.50
2018-07-10T10:44:18.661Z,22.27
2018-07-10T10:46:31.807Z,22.14
2018-07-10T10:48:44.257Z,21.91
2018-07-10T10:50:56.642Z,21.92
2018-07-10T10:53:09.142Z,21.81
2018-07-10T10:55:21.614Z,21.83
2018-07-10T10:57:37.089Z,21.72
2018-07-10T10:59:51.134Z,21.60
2018-07-10T11:02:03.626Z,21.48
2018-07-10T11:04:16.116Z,21.40
2018-07-10T11:06:29.549Z,21.29
2018-07-10T11:08:41.982Z,21.26
2018-07-10T11:10:54.475Z,21.25
2018-07-10T11:13:07.506Z,21.24
2018-07-10T11:15:20.632Z,21.18
2018-07-10T11:17:38.739Z,21.13
2018-07-10T11:20:12.932Z,20.99
2018-07-10T11:22:25.415Z,20.83
2018-07-10T11:24:47.588Z,20.80
2018-07-10T11:27:00.530Z,20.75
2018-07-10T11:29:13.902Z,20.70
2018-07-10T11:31:26.407Z,20.61
2018-07-10T11:33:39.046Z,20.40
2018-07-10T11:35:51.462Z,20.31
2018-07-10T11:38:11.030Z,20.24
2018-07-10T11:40:23.555Z,20.23
2018-07-10T11:42:36.130Z,20.12
2018-07-10T11:44:48.598Z,20.10
2018-07-10T11:47:00.995Z,20.10
2018-07-10T11:49:13.412Z,20.01
2018-07-10T11:51:25.844Z,20.06
2018-07-10T11:53:38.550Z,20.06
2018-07-10T11:55:51.100Z,20.08
2018-07-10T11:58:04.475Z,20.05
2018-07-10T12:00:17.397Z,19.93
2018-07-10T12:02:44.737Z,19.96
2018-07-10T12:04:57.498Z,20.06
2018-07-10T12:07:09.920Z,20.14
2018-07-10T12:09:22.394Z,20.18
2018-07-10T12:11:34.905Z,20.31
2018-07-10T12:13:47.352Z,20.43
2018-07-10T12:15:59.734Z,20.51
2018-07-10T12:18:14.239Z,20.69
2018-07-10T12:20:44.957Z,20.69
2018-07-10T12:22:58.737Z,20.79
2018-07-10T12:25:11.865Z,20.86
2018-07-10T12:27:24.254Z,21.01
2018-07-10T12:29:36.762Z,21.23
2018-07-10T12:31:49.210Z,21.50
2018-07-10T12:34:01.810Z,21.77
2018-07-10T12:36:14.172Z,21.91
2018-07-10T12:38:26.912Z,21.83
2018-07-10T12:40:39.392Z,21.85
2018-07-10T12:42:52.807Z,21.82
2018-07-10T12:45:05.440Z,21.73
2018-07-10T12:47:18.023Z,21.60
2018-07-10T12:49:30.506Z,21.55
2018-07-10T12:51:42.942Z,21.64
2018-07-10T12:53:55.406Z,21.80
2018-07-10T12:56:07.971Z,21.97
2018-07-10T12:58:20.377Z,21.97
2018-07-10T13:00:35.488Z,22.07
2018-07-10T13:02:51.135Z,21.99
2018-07-10T13:05:03.638Z,21.85
2018-07-10T13:07:16.050Z,21.84
2018-07-10T13:09:28.930Z,21.89
2018-07-10T13:11:41.405Z,21.89
2018-07-10T13:13:53.889Z,21.81
2018-07-10T13:16:06.453Z,21.68
2018-07-10T13:18:21.007Z,21.57
2018-07-10T13:20:33.494Z,21.51
2018-07-10T13:22:45.943Z,21.55
2018-07-10T13:24:58.774Z,21.67
2018-07-10T13:27:11.381Z,21.76
2018-07-10T13:29:23.872Z,21.84
2018-07-10T13:31:36.436Z,21.88
2018-07-10T13:33:48.906Z,21.87
2018-07-10T13:36:01.294Z,22.03
2018-07-10T13:38:15.542Z,22.19
2018-07-10T13:40:27.994Z,22.22
2018-07-10T13:42:45.309Z,22.38
2018-07-10T13:44:57.726Z,22.50
2018-07-10T13:47:10.090Z,22.61
2018-07-10T13:49:22.545Z,22.65
2018-07-10T13:51:34.934Z,22.47
2018-07-10T13:53:47.378Z,22.34
2018-07-10T13:55:59.794Z,22.32
2018-07-10T13:58:16.274Z,22.34
2018-07-10T14:00:29.155Z,22.36
2018-07-10T14:02:41.731Z,22.33
2018-07-10T14:04:54.422Z,22.37
2018-07-10T14:07:06.890Z,22.47
2018-07-10T14:09:19.365Z,22.41
2018-07-10T14:11:31.915Z,22.36
2018-07-10T14:13:44.282Z,22.40
2018-07-10T14:15:57.694Z,22.49
2018-07-10T14:18:10.378Z,22.53
2018-07-10T14:20:22.950Z,22.55
2018-07-10T14:22:35.607Z,22.62
2018-07-10T14:24:48.066Z,22.62
2018-07-10T14:27:00.522Z,22.58
2018-07-10T14:29:12.983Z,22.47
2018-07-10T14:31:25.440Z,22.39
2018-07-10T14:33:37.937Z,22.32
2018-07-10T14:35:50.369Z,22.34
2018-07-10T14:38:05.464Z,22.22
2018-07-10T14:40:18.167Z,22.17
2018-07-10T14:42:30.894Z,22.23
2018-07-10T14:44:43.562Z,22.30
2018-07-10T14:46:56.012Z,22.27
2018-07-10T14:49:08.677Z,22.11
2018-07-10T14:51:27.119Z,22.10
2018-07-10T14:53:39.636Z,22.17
2018-07-10T14:55:52.124Z,22.34
2018-07-10T14:58:04.845Z,22.41
2018-07-10T15:00:17.350Z,22.51
2018-07-10T15:02:29.938Z,22.41
2018-07-10T15:04:42.362Z,22.29
2018-07-10T15:06:54.833Z,22.22
2018-07-10T15:09:08.499Z,22.17
2018-07-10T15:11:20.854Z,22.13
2018-07-10T15:13:44.790Z,22.15
2018-07-10T15:16:01.335Z,22.17
2018-07-10T15:18:19.318Z,22.20
2018-07-10T15:20:31.750Z,22.31
2018-07-10T15:22:44.206Z,22.35
2018-07-10T15:24:56.643Z,22.35
2018-07-10T15:27:09.049Z,22.29
2018-07-10T15:29:27.600Z,22.25
2018-07-10T15:31:40.137Z,22.27
2018-07-10T15:33:52.591Z,22.20
2018-07-10T15:36:05.169Z,22.32
2018-07-10T15:38:17.661Z,22.33
2018-07-10T15:40:30.107Z,22.27
2018-07-10T15:42:42.793Z,22.38
2018-07-10T15:44:55.403Z,22.44
2018-07-10T15:47:07.900Z,22.47
2018-07-10T15:49:20.300Z,22.52
2018-07-10T15:51:32.713Z,22.45
2018-07-10T15:53:45.167Z,22.47
2018-07-10T15:55:57.625Z,22.55
2018-07-10T15:58:10.082Z,22.71
2018-07-10T16:00:22.571Z,22.69
2018-07-10T16:02:35.131Z,22.54
2018-07-10T16:04:48.018Z,22.56
2018-07-10T16:07:00.462Z,22.51
2018-07-10T16:09:16.667Z,22.49
2018-07-10T16:11:29.277Z,22.35
2018-07-10T16:13:43.527Z,22.21
2018-07-10T16:15:58.547Z,22.21
2018-07-10T16:18:11.343Z,22.31
2018-07-10T16:20:23.782Z,22.32
2018-07-10T16:22:40.619Z,22.25
2018-07-10T16:24:56.836Z,22.34
2018-07-10T16:27:09.738Z,22.43
2018-07-10T16:29:23.366Z,22.51
2018-07-10T16:31:39.045Z,22.41
2018-07-10T16:33:51.443Z,22.45
2018-07-10T16:36:07.012Z,22.40
2018-07-10T16:38:19.619Z,22.24
2018-07-10T16:40:32.035Z,22.19
2018-07-10T16:42:46.619Z,22.07
2018-07-10T16:44:59.142Z,21.89
2018-07-10T16:47:17.326Z,21.91
2018-07-10T16:49:36.546Z,21.84
2018-07-10T16:52:06.059Z,21.74
2018-07-10T16:54:18.537Z,21.73
2018-07-10T16:56:30.956Z,21.80
2018-07-10T16:58:43.443Z,21.86
2018-07-10T17:00:56.802Z,21.96
2018-07-10T17:03:09.803Z,21.93
2018-07-10T17:05:22.625Z,21.94
2018-07-10T17:07:35.080Z,22.00
2018-07-10T17:09:47.493Z,22.00
2018-07-10T17:12:00.067Z,22.03
2018-07-10T17:14:12.506Z,21.94
2018-07-10T17:16:26.873Z,21.87
2018-07-10T17:18:39.581Z,21.92
2018-07-10T17:20:52.118Z,21.85
2018-07-10T17:23:04.576Z,21.83
2018-07-10T17:25:17.283Z,21.85
2018-07-10T17:27:35.030Z,21.83
2018-07-10T17:29:47.526Z,21.78
2018-07-10T17:31:59.994Z,21.72
2018-07-10T17:34:12.512Z,21.59
2018-07-10T17:36:25.138Z,21.51
2018-07-10T17:38:38.546Z,21.46
2018-07-10T17:40:50.987Z,21.44
2018-07-10T17:43:03.496Z,21.40
2018-07-10T17:45:17.413Z,21.36
2018-07-10T17:47:30.050Z,21.27
2018-07-10T17:49:43.203Z,21.19
2018-07-10T17:51:56.042Z,21.19
2018-07-10T17:54:08.632Z,21.14
2018-07-10T17:56:21.041Z,21.07
2018-07-10T17:58:33.530Z,21.03
2018-07-10T18:00:46.080Z,21.02
2018-07-10T18:02:58.539Z,20.90
2018-07-10T18:05:11.000Z,20.85
2018-07-10T18:07:23.739Z,20.84
2018-07-10T18:09:36.130Z,20.83
2018-07-10T18:11:48.617Z,20.77
2018-07-10T18:14:01.002Z,20.71
2018-07-10T18:16:13.491Z,20.60
2018-07-10T18:18:26.562Z,20.60
2018-07-10T18:20:39.068Z,20.64
2018-07-10T18:22:51.565Z,20.64
2018-07-10T18:25:03.962Z,20.68
2018-07-10T18:27:16.614Z,20.72
2018-07-10T18:29:29.045Z,20.79
2018-07-10T18:31:41.550Z,20.81
2018-07-10T18:33:54.054Z,20.84
2018-07-10T18:36:06.468Z,20.83
2018-07-10T18:38:18.864Z,20.94
2018-07-10T18:40:31.764Z,21.03
2018-07-10T18:42:44.224Z,21.13
2018-07-10T18:44:56.790Z,21.29
2018-07-10T18:47:09.707Z,21.33
2018-07-10T18:49:22.022Z,21.34
2018-07-10T18:51:35.807Z,21.34
2018-07-10T18:53:48.971Z,21.38
2018-07-10T18:56:04.382Z,21.40
2018-07-10T18:58:28.229Z,21.32
2018-07-10T19:00:55.178Z,21.17
2018-07-10T19:03:09.554Z,21.07
2018-07-10T19:05:22.074Z,20.91
2018-07-10T19:07:39.214Z,20.77
2018-07-10T19:09:51.693Z,20.70
2018-07-10T19:12:07.011Z,20.64
2018-07-10T19:14:19.530Z,20.55
2018-07-10T19:16:32.047Z,20.56
2018-07-10T19:18:44.662Z,20.52
2018-07-10T19:21:06.728Z,20.59
2018-07-10T19:23:30.122Z,20.68
2018-07-10T19:25:42.774Z,20.68
2018-07-10T19:27:57.270Z,20.59
2018-07-10T19:30:10.035Z,20.60
2018-07-10T19:32:22.778Z,20.61
2018-07-10T19:34:36.300Z,20.51
2018-07-10T19:36:48.806Z,20.39
2018-07-10T19:39:03.069Z,20.32
2018-07-10T19:41:16.068Z,20.25
2018-07-10T19:43:28.759Z,20.16
2018-07-10T19:45:42.361Z,20.12
2018-07-10T19:47:56.801Z,20.07
2018-07-10T19:50:18.020Z,20.04
2018-07-10T19:52:30.515Z,20.03
2018-07-10T19:54:43.241Z,19.97
2018-07-10T19:56:55.634Z,19.92
2018-07-10T19:59:09.916Z,19.73
2018-07-10T20:01:32.462Z,19.49
2018-07-10T20:04:19.455Z,19.27
2018-07-10T20:06:42.243Z,19.05
2018-07-10T20:08:59.854Z,18.88
2018-07-10T20:11:12.406Z,18.70
2018-07-10T20:13:35.667Z,18.56
2018-07-10T20:15:58.887Z,18.47
2018-07-10T20:18:37.056Z,18.34
2018-07-10T20:23:01.544Z,18.23
2018-07-10T20:27:25.206Z,18.05
2018-07-10T20:30:02.921Z,17.99
2018-07-10T20:32:19.308Z,17.90
2018-07-10T20:35:35.226Z,17.82
2018-07-10T20:37:48.402Z,17.70
2018-07-10T20:40:01.110Z,17.61
2018-07-10T20:42:13.680Z,17.49
2018-07-10T20:44:26.538Z,17.36
2018-07-10T20:46:43.287Z,17.21
2018-07-10T20:49:00.286Z,17.09
2018-07-10T20:51:13.462Z,17.11
2018-07-10T20:53:34.842Z,16.97
2018-07-10T20:55:53.265Z,16.97
2018-07-10T20:58:09.316Z,16.92
2018-07-10T21:00:22.082Z,16.87
2018-07-10T21:02:56.914Z,16.82
2018-07-10T21:05:12.160Z,16.73
2018-07-10T21:07:29.138Z,16.69
2018-07-10T21:09:52.322Z,16.67
2018-07-10T21:12:10.232Z,16.66
2018-07-10T21:14:37.213Z,16.64
2018-07-10T21:16:58.876Z,16.51
2018-07-10T21:19:24.242Z,16.45
2018-07-10T21:22:01.133Z,16.37
2018-07-10T21:24:22.335Z,16.33
2018-07-10T21:26:41.926Z,16.22
2018-07-10T21:28:55.611Z,16.19
2018-07-10T21:32:20.257Z,16.08
2018-07-10T21:34:42.259Z,16.07
2018-07-10T21:36:59.790Z,16.06
2018-07-10T21:39:16.632Z,15.98
2018-07-10T21:42:12.903Z,15.91
2018-07-10T21:44:38.777Z,15.86
2018-07-10T21:46:57.555Z,15.90
2018-07-10T21:50:14.755Z,15.94
2018-07-10T21:52:27.365Z,15.97
2018-07-10T21:54:39.997Z,16.00
2018-07-10T21:56:52.405Z,16.00
2018-07-10T21:59:05.094Z,15.96
2018-07-10T22:01:38.986Z,15.90
2018-07-10T22:03:51.472Z,15.85
2018-07-10T22:06:03.901Z,15.87
2018-07-10T22:08:16.326Z,15.82
2018-07-10T22:10:28.834Z,15.82
2018-07-10T22:12:43.578Z,15.82
2018-07-10T22:14:56.145Z,15.76
2018-07-10T22:17:16.217Z,15.78
2018-07-10T22:19:29.061Z,15.82
2018-07-10T22:21:41.818Z,15.85
2018-07-10T22:23:54.290Z,15.82
2018-07-10T22:26:06.683Z,15.78
2018-07-10T22:28:19.184Z,15.75
2018-07-10T22:30:37.346Z,15.72
2018-07-10T22:32:56.175Z,15.70
2018-07-10T22:35:08.786Z,15.65
2018-07-10T22:37:21.362Z,15.66
2018-07-10T22:39:33.810Z,15.66
2018-07-10T22:41:46.699Z,15.67
2018-07-10T22:44:00.214Z,15.71
2018-07-10T22:46:12.748Z,15.76
2018-07-10T22:48:25.229Z,15.83
2018-07-10T22:50:37.637Z,15.88
2018-07-10T22:52:53.094Z,15.97
2018-07-10T22:55:05.639Z,16.03
2018-07-10T22:57:18.064Z,16.13
2018-07-10T22:59:30.584Z,16.21
2018-07-10T23:01:42.962Z,16.28
2018-07-10T23:03:55.627Z,16.36
2018-07-10T23:06:08.030Z,16.42
2018-07-10T23:08:27.309Z,16.48
2018-07-10T23:10:39.721Z,16.54
2018-07-10T23:12:52.158Z,16.59
2018-07-10T23:15:04.675Z,16.65
2018-07-10T23:17:17.055Z,16.68
2018-07-10T23:19:29.544Z,16.66
2018-07-10T23:21:42.030Z,16.69
2018-07-10T23:23:54.394Z,16.72
2018-07-10T23:26:07.035Z,16.74
2018-07-10T23:28:20.037Z,16.72
2018-07-10T23:30:38.022Z,16.69
2018-07-10T23:32:50.470Z,16.72
2018-07-10T23:35:02.938Z,16.73
2018-07-10T23:37:16.011Z,16.72
2018-07-10T23:39:48.975Z,16.73
2018-07-10T23:42:05.134Z,16.67
2018-07-10T23:44:17.634Z,16.64
2018-07-10T23:46:35.529Z,16.61
2018-07-10T23:48:50.065Z,16.60
2018-07-10T23:51:02.563Z,16.58
2018-07-10T23:53:29.054Z,16.52
2018-07-10T23:55:41.668Z,16.49
2018-07-10T23:57:54.288Z,16.49
